Huvudsida
METAR-TAF:

METAR-TAF

Flygplatser :

Sarakhs, Iran

latitud: 36-30-04N, longitud: 061-03-54E, höjd: 288 m

Aktuellt väderrapport

Denna rapport gjordes för 46 minuter sedan, klockan 15:00 UTC
Vind 14 kt från väst i byarna ända upp till 19 kt
Temperatur 29°C
Fuktighet 37%
Tryck 1016 hPa

METAR: OIMC 271500Z AUTO 28014G19KT //// // ////// 29/13 Q1016

Tid: 20:16 (15:46 UTC)


TAF: saknas

Aktuella väderrapporter och prognoser från 4000 flygplatser (METAR- och TAF-rapporter).

De tillgängliga stationerna syns som gula och röda prickar på kartan.

För musen över prickarna för att se namnen på stationerna.

Klicka sedan för att få väderrapporter och prognoser.

För att ändra kartan: Klicka på de gröna knapparna med ett svart kors på för att zooma in; den gröna knappen med ett streck på för att zooma ut; eller på de gröna pilarna för angränsande kartor.


METAR-TAF: